CDT,Max TemperatureF,Mean TemperatureF,Min TemperatureF,Max Dew PointF,MeanDew PointF,Min DewpointF,Max Humidity, Mean Humidity, Min Humidity, Max Sea Level PressureIn, Mean Sea Level PressureIn, Min Sea Level PressureIn, Max VisibilityMiles, Mean VisibilityMiles, Min VisibilityMiles, Max Wind SpeedMPH, Mean Wind SpeedMPH, Max Gust SpeedMPH,PrecipitationIn, CloudCover, Events, WindDirDegrees
2013-4-1,53,42,31,38,27,19,70,50,30,30.21,30.10,29.90,10,10,10,17,8,25,0.00,1,,332
2013-4-2,50,39,27,24,18,13,69,47,25,30.35,30.29,30.22,10,10,10,13,4,20,0.00,0,,322
2013-4-3,53,40,26,25,21,17,78,51,24,30.40,30.32,30.26,10,10,10,16,6,22,0.00,0,,62
2013-4-4,60,48,35,29,22,19,75,49,23,30.26,30.12,30.03,10,10,10,12,4,15,0.00,0,,49
2013-4-5,67,50,32,35,31,27,75,51,26,30.13,30.09,30.04,10,10,10,16,5,22,0.00,0,,338
2013-4-6,74,58,42,37,34,30,70,48,25,30.12,30.01,29.87,10,10,10,23,10,31,0.00,0,,162
2013-4-7,76,66,55,53,47,38,80,61,42,29.97,29.93,29.89,10,10,6,16,9,22,0.00,3,,210
2013-4-8,76,67,58,55,51,47,72,59,46,29.96,29.91,29.87,10,10,6,23,9,32,T,5,Rain,181
2013-4-9,82,70,58,59,57,52,80,63,45,30.02,29.96,29.91,10,10,10,23,11,31,0.00,3,,176
2013-4-10,84,76,68,63,60,56,76,61,45,29.93,29.84,29.71,10,10,10,25,12,33,T,2,,185
2013-4-11,69,56,42,63,56,35,93,82,70,29.79,29.69,29.61,10,7,2,22,11,29,1.48,7,Rain-Thunderstorm,248
2013-4-12,55,45,35,36,33,30,85,66,46,30.04,29.86,29.75,10,10,10,24,10,29,0.00,3,,274
2013-4-13,63,49,34,39,34,29,82,59,36,30.09,30.05,30.00,10,10,10,18,5,24,0.00,0,,244
2013-4-14,76,60,43,46,42,37,76,54,31,29.99,29.89,29.79,10,10,10,28,9,37,0.00,0,,137
2013-4-15,76,66,56,57,53,47,77,64,50,29.98,29.91,29.85,10,10,10,16,8,26,0.00,5,,154
2013-4-16,82,71,60,67,61,55,90,74,58,30.10,30.04,29.91,10,8,2,17,7,22,0.10,6,Rain-Thunderstorm,295
2013-4-17,85,72,58,68,61,55,93,74,55,30.10,30.01,29.84,10,8,2,17,7,28,0.00,3,,174
2013-4-18,82,64,45,64,59,45,93,72,51,29.82,29.70,29.62,10,7,2,25,13,38,1.79,6,Rain-Thunderstorm,225
2013-4-19,49,44,39,43,33,27,92,71,49,30.09,29.85,29.67,10,9,2,28,12,38,0.06,7,Rain,277
2013-4-20,57,45,33,33,30,27,82,57,32,30.38,30.26,30.10,10,10,10,14,6,23,0.00,0,,353
2013-4-21,64,50,35,36,30,27,76,51,25,30.48,30.39,30.31,10,10,10,13,7,21,0.00,0,,67
2013-4-22,72,57,41,43,39,32,76,56,35,30.32,30.20,30.08,10,10,10,13,5,21,0.00,0,,114
2013-4-23,72,61,50,56,50,42,78,64,49,30.09,29.97,29.83,10,10,7,21,9,29,0.04,5,Rain,184
2013-4-24,51,44,37,48,39,32,96,75,54,30.30,30.06,29.90,10,9,5,18,8,26,0.29,7,Rain,308
2013-4-25,63,49,35,39,35,32,92,64,35,30.38,30.33,30.28,10,10,2,21,6,28,0.00,0,,270
2013-4-26,63,51,39,44,38,33,85,61,36,30.46,30.38,30.31,10,10,10,13,4,16,0.00,3,,138
2013-4-27,58,54,50,54,50,43,89,78,66,30.33,30.13,29.93,10,10,6,15,5,24,0.04,8,Rain,104
2013-4-28,61,58,55,56,53,52,93,83,72,29.96,29.91,29.87,10,7,2,14,7,21,0.06,8,Rain,237
2013-4-29,73,62,51,52,51,49,93,67,41,30.01,29.96,29.91,10,8,2,12,5,16,0.00,4,,174
2013-4-30,82,66,50,57,52,47,89,64,39,30.02,29.97,29.92,10,10,9,12,4,17,0.00,0,,145